Time;durP1;ratioP1;P1;durP2;ratioP2;P2;SDS_P1;SDS_P2;PMS_P1;PMS_P2;Temp;Humidity;BMP_temperature;BMP_pressure;BME280_temperature;BME280_humidity;BME280_pressure;Samples;Min_cycle;Max_cycle;Signal;HPM_P1;HPM_P2
2022/09/29 00:01:47;;;;;;;2.78;1.98;;;10.20;99.90;;;;;;5071589;28;20023;-73
2022/09/29 00:04:14;;;;;;;2.15;1.83;;;10.10;99.90;;;;;;5072010;28;20154;-74
2022/09/29 00:06:39;;;;;;;3.58;2.20;;;10.00;99.90;;;;;;5071899;28;20059;-74
2022/09/29 00:09:05;;;;;;;8.20;2.08;;;10.00;99.90;;;;;;5071614;28;20055;-74
2022/09/29 00:11:30;;;;;;;2.35;1.73;;;9.90;99.90;;;;;;5071499;28;20066;-74
2022/09/29 00:13:56;;;;;;;3.40;1.70;;;9.90;99.90;;;;;;5071626;28;20031;-74
2022/09/29 00:16:21;;;;;;;8.68;1.90;;;9.90;99.90;;;;;;5073051;28;20059;-74
2022/09/29 00:18:47;;;;;;;6.50;1.80;;;9.90;99.90;;;;;;5072832;28;20028;-74
2022/09/29 00:21:15;;;;;;;2.45;1.75;;;9.90;99.90;;;;;;5073174;28;20020;-74
2022/09/29 00:23:41;;;;;;;1.70;1.52;;;9.90;99.90;;;;;;5071514;28;20023;-74
2022/09/29 00:26:09;;;;;;;2.95;1.77;;;9.90;99.90;;;;;;5073309;28;20104;-74
2022/09/29 00:28:37;;;;;;;5.00;2.97;;;9.90;99.90;;;;;;5071649;28;20460;-74
2022/09/29 00:31:04;;;;;;;2.42;2.10;;;9.80;99.90;;;;;;5071941;28;20021;-74
2022/09/29 00:33:32;;;;;;;2.88;1.60;;;9.60;99.90;;;;;;5071727;28;20047;-74
2022/09/29 00:36:03;;;;;;;1.80;1.52;;;9.60;99.90;;;;;;5073052;28;20035;-74
2022/09/29 00:38:30;;;;;;;3.30;2.17;;;9.60;99.90;;;;;;5072542;28;20028;-74
2022/09/29 00:40:55;;;;;;;1.77;1.50;;;9.40;99.90;;;;;;5072447;28;20025;-73
2022/09/29 00:43:48;;;;;;;3.25;1.90;;;9.50;99.90;;;;;;5072896;28;20027;-74
2022/09/29 00:46:19;;;;;;;1.73;1.63;;;9.60;99.90;;;;;;5075464;28;20039;-74
2022/09/29 00:48:46;;;;;;;2.87;2.00;;;9.70;99.90;;;;;;5074962;28;20051;-74
2022/09/29 00:51:12;;;;;;;3.13;1.70;;;9.70;99.90;;;;;;5075990;28;20024;-74
2022/09/29 00:53:39;;;;;;;4.28;1.90;;;9.50;99.90;;;;;;5076259;28;20024;-74
2022/09/29 00:56:09;;;;;;;4.55;2.15;;;9.30;99.90;;;;;;5075110;28;20162;-72
2022/09/29 00:58:38;;;;;;;1.90;1.70;;;9.30;99.90;;;;;;5076275;28;20038;-72
2022/09/29 01:01:05;;;;;;;3.40;1.65;;;9.30;99.90;;;;;;5075780;28;20103;-72
2022/09/29 01:03:36;;;;;;;3.83;1.80;;;9.30;99.90;;;;;;5075832;28;20024;-72
2022/09/29 01:06:24;;;;;;;3.05;1.73;;;9.50;99.90;;;;;;5074575;28;20085;-72
2022/09/29 01:09:00;;;;;;;8.13;1.95;;;9.50;99.90;;;;;;5075880;28;20107;-72
2022/09/29 01:11:25;;;;;;;3.50;2.20;;;9.60;99.90;;;;;;5074500;28;20045;-72
2022/09/29 01:13:53;;;;;;;5.20;2.08;;;9.60;99.90;;;;;;5075317;28;20059;-71
2022/09/29 01:16:19;;;;;;;2.35;1.90;;;9.70;99.90;;;;;;5074640;28;20070;-72
2022/09/29 01:18:46;;;;;;;3.00;1.92;;;9.70;99.90;;;;;;5075617;28;20024;-72
2022/09/29 01:21:46;;;;;;;2.47;1.88;;;9.70;99.90;;;;;;5074329;28;20050;-72
2022/09/29 01:24:29;;;;;;;6.15;2.10;;;9.60;99.90;;;;;;5074294;28;20119;-72
2022/09/29 01:27:12;;;;;;;5.10;1.73;;;9.60;99.90;;;;;;5074250;28;20396;-72
2022/09/29 01:30:26;;;;;;;3.42;1.75;;;9.40;99.90;;;;;;5075462;28;20103;-72
2022/09/29 01:33:10;;;;;;;2.75;1.70;;;9.40;99.90;;;;;;5003683;28;20135;-72
2022/09/29 01:35:47;;;;;;;2.53;2.17;;;9.40;99.90;;;;;;5075332;28;20085;-72
2022/09/29 01:38:15;;;;;;;4.70;2.03;;;9.30;99.90;;;;;;5074867;28;20017;-71
2022/09/29 01:41:14;;;;;;;3.65;1.88;;;9.30;99.90;;;;;;5075564;28;20021;-71
2022/09/29 01:44:13;;;;;;;3.60;1.67;;;9.10;99.90;;;;;;5056452;28;20025;-71
2022/09/29 01:46:46;;;;;;;1.75;1.38;;;9.00;99.90;;;;;;5074455;28;20029;-71
2022/09/29 01:49:13;;;;;;;2.40;1.80;;;9.00;99.90;;;;;;5075326;28;20024;-71
2022/09/29 01:51:54;;;;;;;4.65;1.80;;;8.90;99.90;;;;;;5074882;28;20107;-72
2022/09/29 01:54:45;;;;;;;3.38;1.70;;;8.90;99.90;;;;;;5075183;28;20428;-72
2022/09/29 01:57:24;;;;;;;4.55;2.13;;;8.90;99.90;;;;;;5062392;28;20037;-72
2022/09/29 02:00:08;;;;;;;3.03;1.83;;;9.00;99.90;;;;;;5074177;28;20036;-71
2022/09/29 02:02:55;;;;;;;8.63;2.40;;;8.90;99.90;;;;;;5073629;28;20059;-72
2022/09/29 02:05:32;;;;;;;6.55;4.05;;;8.80;99.90;;;;;;5074678;28;20039;-71
2022/09/29 02:08:02;;;;;;;4.32;3.58;;;8.80;99.90;;;;;;5073391;28;20097;-71
2022/09/29 02:10:33;;;;;;;9.45;4.97;;;8.80;99.90;;;;;;5074625;28;20082;-72
2022/09/29 02:13:02;;;;;;;5.97;2.87;;;8.80;99.90;;;;;;5073359;28;20115;-72
2022/09/29 02:15:33;;;;;;;3.97;2.20;;;8.80;99.90;;;;;;5074969;28;20283;-72
2022/09/29 02:18:08;;;;;;;5.05;2.20;;;8.70;99.90;;;;;;5074149;28;20079;-72
2022/09/29 02:20:34;;;;;;;3.58;2.08;;;8.70;99.90;;;;;;5074435;28;20112;-72
2022/09/29 02:23:00;;;;;;;3.05;2.38;;;8.70;99.90;;;;;;5073288;28;20060;-72
2022/09/29 02:25:25;;;;;;;3.50;2.38;;;8.70;99.90;;;;;;5073665;28;20072;-71
2022/09/29 02:27:52;;;;;;;3.13;2.28;;;8.70;99.90;;;;;;5074282;28;20056;-71
2022/09/29 02:30:17;;;;;;;10.75;2.25;;;8.60;99.90;;;;;;5072921;28;20078;-71
2022/09/29 02:32:46;;;;;;;3.83;2.17;;;8.70;99.90;;;;;;5072878;28;20024;-71
2022/09/29 02:35:13;;;;;;;3.78;2.17;;;8.70;99.90;;;;;;5074088;28;20097;-72
2022/09/29 02:37:38;;;;;;;5.93;2.00;;;8.70;99.90;;;;;;5073233;28;20031;-71
2022/09/29 02:40:28;;;;;;;4.13;1.65;;;8.60;99.90;;;;;;5073211;28;20024;-71
2022/09/29 02:43:31;;;;;;;2.63;1.77;;;8.50;99.90;;;;;;5072672;28;20052;-72
2022/09/29 02:46:15;;;;;;;2.40;1.77;;;8.40;99.90;;;;;;5072873;28;20077;-72
2022/09/29 02:49:02;;;;;;;2.63;1.90;;;8.30;99.90;;;;;;5073927;28;20027;-72
2022/09/29 02:52:19;;;;;;;4.07;1.88;;;8.20;99.90;;;;;;5073739;28;20028;-71
2022/09/29 02:55:06;;;;;;;4.90;1.50;;;8.10;99.90;;;;;;4976345;28;20140;-71
2022/09/29 02:57:55;;;;;;;1.92;1.20;;;8.10;99.90;;;;;;4992470;28;20038;-71
2022/09/29 03:00:21;;;;;;;3.70;1.60;;;8.20;99.90;;;;;;4993139;28;20081;-71
2022/09/29 03:02:47;;;;;;;2.58;1.48;;;8.10;99.90;;;;;;4975961;28;20023;-72
2022/09/29 03:05:16;;;;;;;4.05;1.90;;;8.20;99.90;;;;;;4976038;28;20034;-72
2022/09/29 03:07:42;;;;;;;5.15;1.63;;;8.20;99.90;;;;;;4992232;28;20425;-72
2022/09/29 03:10:09;;;;;;;2.58;1.42;;;8.20;99.90;;;;;;4992321;28;20085;-72
2022/09/29 03:12:36;;;;;;;2.08;1.58;;;8.10;99.90;;;;;;4992130;28;20065;-72
2022/09/29 03:15:03;;;;;;;2.33;1.58;;;8.10;99.90;;;;;;4975962;28;20019;-72
2022/09/29 03:17:28;;;;;;;3.42;1.10;;;8.10;99.90;;;;;;4976267;28;20034;-72
2022/09/29 03:19:54;;;;;;;7.72;2.08;;;8.10;99.90;;;;;;4975999;28;20030;-72
2022/09/29 03:22:20;;;;;;;1.50;1.40;;;8.10;99.90;;;;;;4989398;28;20057;-72
2022/09/29 03:24:45;;;;;;;2.70;1.55;;;8.10;99.90;;;;;;4992700;28;20029;-72
2022/09/29 03:27:11;;;;;;;2.15;1.52;;;8.10;99.90;;;;;;4975773;28;20034;-72
2022/09/29 03:29:37;;;;;;;4.10;1.40;;;8.00;99.90;;;;;;5019797;28;20033;-72
2022/09/29 03:32:03;;;;;;;2.95;1.73;;;8.00;99.90;;;;;;5073189;28;20021;-72
2022/09/29 03:34:29;;;;;;;4.85;1.95;;;7.90;99.90;;;;;;5072121;28;20029;-71
2022/09/29 03:36:56;;;;;;;2.83;1.65;;;8.00;99.90;;;;;;5071768;28;20086;-71
2022/09/29 03:39:22;;;;;;;3.05;2.08;;;8.00;99.90;;;;;;5073190;28;20020;-71
2022/09/29 03:41:48;;;;;;;2.60;1.65;;;8.10;99.90;;;;;;5073093;28;20023;-71
2022/09/29 03:44:13;;;;;;;3.42;2.47;;;8.20;99.90;;;;;;5073078;28;20028;-71
2022/09/29 03:46:39;;;;;;;2.20;1.80;;;8.20;99.90;;;;;;5071836;28;20058;-71
2022/09/29 03:49:04;;;;;;;6.78;2.13;;;8.20;99.90;;;;;;5073367;28;20025;-71
2022/09/29 03:51:30;;;;;;;2.38;1.70;;;8.20;99.90;;;;;;5071749;28;20028;-71
2022/09/29 03:53:56;;;;;;;5.28;1.58;;;8.20;99.90;;;;;;5071770;28;20109;-71
2022/09/29 03:56:22;;;;;;;2.40;1.30;;;8.10;99.90;;;;;;5073309;28;20067;-71
2022/09/29 03:58:48;;;;;;;3.78;1.50;;;7.90;99.90;;;;;;5071800;28;20107;-71
2022/09/29 04:01:13;;;;;;;1.92;1.13;;;7.80;99.90;;;;;;5071688;28;20162;-72
2022/09/29 04:03:39;;;;;;;2.22;1.33;;;7.80;99.90;;;;;;5071716;28;20017;-71
2022/09/29 04:06:04;;;;;;;2.58;1.20;;;7.80;99.90;;;;;;5073321;28;20048;-71
2022/09/29 04:08:30;;;;;;;4.07;1.23;;;7.80;99.90;;;;;;5072920;28;20025;-71
2022/09/29 04:10:55;;;;;;;3.13;1.60;;;7.90;99.90;;;;;;5073132;28;20031;-72
2022/09/29 04:13:21;;;;;;;2.38;1.98;;;7.90;99.90;;;;;;5071646;28;20031;-71
2022/09/29 04:15:48;;;;;;;3.42;1.38;;;7.90;99.90;;;;;;5071548;28;20031;-71
2022/09/29 04:18:13;;;;;;;2.50;1.52;;;7.80;99.90;;;;;;5072740;28;20028;-71
2022/09/29 04:20:39;;;;;;;2.55;1.52;;;7.90;99.90;;;;;;5075489;28;20021;-73
2022/09/29 04:23:05;;;;;;;5.25;2.15;;;7.90;99.90;;;;;;5076849;28;20017;-72
2022/09/29 04:25:31;;;;;;;6.25;2.90;;;7.90;99.90;;;;;;5075293;28;20067;-72
2022/09/29 04:27:56;;;;;;;10.45;3.90;;;7.90;99.90;;;;;;5076766;28;20060;-72
2022/09/29 04:30:22;;;;;;;7.30;2.70;;;8.00;99.90;;;;;;5076719;28;20099;-72
2022/09/29 04:32:47;;;;;;;8.32;3.42;;;8.00;99.90;;;;;;5076404;28;20024;-72
2022/09/29 04:35:13;;;;;;;15.32;3.25;;;8.20;99.90;;;;;;5075130;28;20083;-72
2022/09/29 04:37:39;;;;;;;29.58;3.70;;;8.30;99.90;;;;;;5076330;28;20081;-72
2022/09/29 04:40:05;;;;;;;15.55;3.50;;;8.30;99.90;;;;;;5075009;28;20020;-72
2022/09/29 04:42:30;;;;;;;9.18;3.13;;;8.20;99.90;;;;;;5076126;28;20020;-72
2022/09/29 04:44:56;;;;;;;13.27;3.05;;;8.20;99.90;;;;;;5076514;28;20020;-72
2022/09/29 04:47:21;;;;;;;8.63;3.47;;;8.10;99.90;;;;;;5076090;28;20035;-72
2022/09/29 04:49:47;;;;;;;12.52;3.28;;;8.00;99.90;;;;;;5076021;28;20031;-72
2022/09/29 04:52:13;;;;;;;9.68;3.13;;;8.00;99.90;;;;;;5076591;28;20039;-72
2022/09/29 04:54:39;;;;;;;16.75;4.05;;;7.90;99.90;;;;;;5075632;28;20029;-72
2022/09/29 04:57:05;;;;;;;22.80;3.55;;;7.80;99.90;;;;;;5074638;28;20039;-72
2022/09/29 04:59:31;;;;;;;21.60;4.00;;;7.80;99.90;;;;;;5074655;28;20021;-72
2022/09/29 05:01:57;;;;;;;24.50;4.72;;;7.70;99.90;;;;;;5074879;28;20027;-72
2022/09/29 05:04:23;;;;;;;53.83;5.10;;;7.70;99.90;;;;;;5074858;28;20013;-72
2022/09/29 05:06:48;;;;;;;22.75;3.90;;;7.60;99.90;;;;;;5075790;28;20036;-72
2022/09/29 05:09:14;;;;;;;23.25;4.07;;;7.50;99.90;;;;;;5076107;28;20025;-72
2022/09/29 05:11:39;;;;;;;14.55;3.40;;;7.50;99.90;;;;;;5074459;28;20047;-72
2022/09/29 05:14:05;;;;;;;36.63;4.65;;;7.60;99.90;;;;;;5074704;28;20024;-72
2022/09/29 05:16:30;;;;;;;26.98;4.85;;;7.60;99.90;;;;;;5075473;28;20027;-72
2022/09/29 05:18:56;;;;;;;14.20;4.28;;;7.60;99.90;;;;;;5074368;28;20013;-72
2022/09/29 05:21:22;;;;;;;9.48;3.60;;;7.50;99.90;;;;;;5074344;28;20025;-72
2022/09/29 05:23:48;;;;;;;8.45;3.08;;;7.60;99.90;;;;;;5074368;28;20031;-72
2022/09/29 05:26:13;;;;;;;21.75;3.85;;;7.70;99.90;;;;;;5074295;28;20024;-72
2022/09/29 05:28:43;;;;;;;9.43;3.80;;;7.60;99.90;;;;;;5075094;28;20032;-72
2022/09/29 05:31:09;;;;;;;21.92;4.70;;;7.70;99.90;;;;;;5075370;28;20158;-72
2022/09/29 05:33:36;;;;;;;41.17;4.50;;;7.70;99.90;;;;;;5075288;28;20066;-72
2022/09/29 05:36:09;;;;;;;16.58;4.45;;;7.60;99.90;;;;;;5075007;28;20036;-72
2022/09/29 05:38:36;;;;;;;7.93;4.03;;;7.70;99.90;;;;;;5075227;28;20021;-72
2022/09/29 05:41:11;;;;;;;7.97;3.85;;;7.70;99.90;;;;;;5075064;28;20031;-72
2022/09/29 05:43:38;;;;;;;30.65;5.00;;;7.70;99.90;;;;;;5073741;28;20020;-72
2022/09/29 05:46:06;;;;;;;29.63;5.00;;;7.70;99.90;;;;;;5073900;28;20029;-72
2022/09/29 05:48:32;;;;;;;31.90;5.00;;;7.70;99.90;;;;;;5074000;28;20035;-72
2022/09/29 05:50:58;;;;;;;13.70;4.20;;;7.70;99.90;;;;;;5073626;28;20028;-72
2022/09/29 05:53:25;;;;;;;11.73;4.38;;;7.70;99.90;;;;;;5074191;28;20028;-72
2022/09/29 05:55:50;;;;;;;12.25;4.10;;;7.80;99.90;;;;;;5073507;28;20029;-72
2022/09/29 05:58:16;;;;;;;8.13;4.38;;;7.90;99.90;;;;;;5075455;28;20017;-72
2022/09/29 06:00:42;;;;;;;7.88;4.03;;;8.00;99.90;;;;;;5074156;28;20021;-72
2022/09/29 06:03:07;;;;;;;8.40;4.13;;;8.10;99.90;;;;;;5074838;28;20017;-72
2022/09/29 06:05:38;;;;;;;13.55;5.28;;;8.00;99.90;;;;;;5079724;28;20020;-72
2022/09/29 06:08:04;;;;;;;17.27;5.47;;;8.00;99.90;;;;;;5075265;28;20030;-72
2022/09/29 06:10:30;;;;;;;10.13;4.80;;;8.00;99.90;;;;;;5074994;28;20021;-72
2022/09/29 06:12:55;;;;;;;11.30;5.07;;;7.80;99.90;;;;;;5074755;28;20021;-72
2022/09/29 06:15:21;;;;;;;14.65;5.00;;;7.80;99.90;;;;;;5074060;28;20040;-72
2022/09/29 06:17:53;;;;;;;9.93;4.85;;;7.90;99.90;;;;;;5074459;28;20046;-72
2022/09/29 06:20:18;;;;;;;13.77;5.10;;;8.00;99.90;;;;;;5073964;28;20027;-72
2022/09/29 06:22:44;;;;;;;10.35;5.28;;;8.00;99.90;;;;;;5074273;28;20033;-72
2022/09/29 06:25:10;;;;;;;9.50;4.55;;;8.10;99.90;;;;;;5073352;28;20013;-72
2022/09/29 06:27:35;;;;;;;11.65;4.80;;;8.10;99.90;;;;;;5074302;28;20056;-72
2022/09/29 06:30:01;;;;;;;12.73;5.05;;;8.20;99.90;;;;;;5072975;28;20100;-72
2022/09/29 06:32:26;;;;;;;12.05;5.55;;;8.30;99.90;;;;;;5072814;28;20032;-72
2022/09/29 06:37:38;;;;;;;17.60;7.32;;;8.50;99.90;;;;;;5074211;28;20035;-72
2022/09/29 06:40:07;;;;;;;18.25;6.80;;;8.40;99.90;;;;;;5073741;28;20024;-71
2022/09/29 06:42:33;;;;;;;14.95;5.90;;;8.40;99.90;;;;;;5073831;28;20020;-72
2022/09/29 06:44:58;;;;;;;18.60;6.68;;;8.20;99.90;;;;;;5072688;28;20551;-72
2022/09/29 06:47:24;;;;;;;14.00;6.15;;;8.20;99.90;;;;;;5073970;28;20039;-72
2022/09/29 06:49:50;;;;;;;21.75;8.13;;;8.30;99.90;;;;;;5073834;28;20033;-72
2022/09/29 06:52:16;;;;;;;22.60;7.55;;;8.30;99.90;;;;;;5073750;28;20107;-71
2022/09/29 06:54:41;;;;;;;25.00;8.15;;;8.40;99.90;;;;;;5074586;28;20020;-71
2022/09/29 06:57:08;;;;;;;19.60;6.68;;;8.50;99.90;;;;;;5072360;28;20031;-71
2022/09/29 06:59:34;;;;;;;17.30;6.97;;;8.50;99.90;;;;;;5073606;28;20099;-72
2022/09/29 07:01:59;;;;;;;16.33;6.93;;;8.50;99.90;;;;;;5072413;28;20114;-70
2022/09/29 07:04:25;;;;;;;23.67;8.75;;;8.60;99.90;;;;;;5072638;28;20020;-71
2022/09/29 07:06:50;;;;;;;25.85;8.18;;;8.60;99.90;;;;;;5072315;28;20024;-71
2022/09/29 07:09:17;;;;;;;40.25;7.90;;;8.70;99.90;;;;;;5073533;28;20086;-70
2022/09/29 07:11:47;;;;;;;49.85;8.20;;;8.60;99.90;;;;;;5073760;28;20025;-71
2022/09/29 07:14:17;;;;;;;42.58;8.88;;;8.40;99.90;;;;;;5073803;28;20021;-72
2022/09/29 07:16:43;;;;;;;17.10;7.32;;;8.30;99.90;;;;;;5072244;28;20388;-72
2022/09/29 07:19:09;;;;;;;20.08;8.00;;;8.40;99.90;;;;;;5073413;28;20024;-72
2022/09/29 07:21:34;;;;;;;16.48;7.53;;;8.40;99.90;;;;;;5072421;28;20025;-72
2022/09/29 07:24:00;;;;;;;19.48;7.22;;;8.40;99.90;;;;;;5073389;28;20017;-72
2022/09/29 07:26:26;;;;;;;14.80;6.68;;;8.80;99.90;;;;;;5072943;28;20024;-73
2022/09/29 07:28:52;;;;;;;21.50;7.70;;;9.10;99.90;;;;;;5072765;28;20032;-72
2022/09/29 07:31:20;;;;;;;17.13;8.02;;;9.30;99.90;;;;;;5073223;28;20032;-72
2022/09/29 07:33:47;;;;;;;17.25;7.25;;;9.10;99.90;;;;;;5072034;28;20021;-72
2022/09/29 07:36:15;;;;;;;19.15;8.32;;;9.20;99.90;;;;;;5073193;28;20032;-72
2022/09/29 07:38:43;;;;;;;17.48;8.05;;;9.20;99.90;;;;;;5071904;28;20468;-73
2022/09/29 07:41:10;;;;;;;16.63;7.65;;;9.30;99.90;;;;;;5072109;28;20027;-73
2022/09/29 07:43:36;;;;;;;14.48;7.03;;;9.40;99.90;;;;;;5071945;28;20020;-73
2022/09/29 07:46:02;;;;;;;15.38;7.40;;;9.60;99.90;;;;;;5072226;28;20033;-72
2022/09/29 07:48:29;;;;;;;15.77;7.22;;;9.60;99.90;;;;;;5073106;28;20032;-72
2022/09/29 07:51:02;;;;;;;25.90;8.27;;;9.40;99.90;;;;;;5072981;28;20032;-72
2022/09/29 07:53:28;;;;;;;21.35;8.73;;;9.00;99.90;;;;;;5076431;28;20047;-72
2022/09/29 07:56:06;;;;;;;20.50;8.73;;;8.90;99.90;;;;;;5075925;28;20027;-72
2022/09/29 07:58:32;;;;;;;16.20;8.68;;;8.80;99.90;;;;;;5077312;28;20496;-72
2022/09/29 08:01:00;;;;;;;27.92;9.55;;;8.80;99.90;;;;;;5075449;28;20119;-73
2022/09/29 08:03:25;;;;;;;26.58;9.95;;;9.10;99.90;;;;;;5075767;28;20103;-73
2022/09/29 08:05:52;;;;;;;25.70;10.63;;;9.40;99.90;;;;;;5075793;28;20063;-73
2022/09/29 08:08:17;;;;;;;24.50;10.52;;;9.70;99.90;;;;;;5077360;28;20032;-73
2022/09/29 08:10:43;;;;;;;21.55;11.02;;;9.70;99.90;;;;;;5075653;28;20387;-73
2022/09/29 08:13:09;;;;;;;25.17;10.40;;;9.80;99.90;;;;;;5077002;28;20035;-73
2022/09/29 08:15:34;;;;;;;23.13;10.27;;;9.80;99.90;;;;;;5076788;28;20043;-73
2022/09/29 08:18:00;;;;;;;27.98;10.55;;;9.70;99.90;;;;;;5076793;28;20025;-73
2022/09/29 08:20:25;;;;;;;23.02;10.52;;;9.60;99.90;;;;;;5075577;28;20111;-72
2022/09/29 08:22:55;;;;;;;28.30;11.15;;;9.70;99.90;;;;;;5075349;28;20027;-73
2022/09/29 08:25:20;;;;;;;24.98;10.88;;;9.70;99.90;;;;;;5076891;28;20013;-73
2022/09/29 08:27:46;;;;;;;27.05;11.82;;;9.70;99.90;;;;;;5076545;28;20032;-73
2022/09/29 08:30:11;;;;;;;21.48;11.05;;;9.60;99.90;;;;;;5075173;28;20023;-73
2022/09/29 08:32:37;;;;;;;27.48;11.98;;;9.50;99.90;;;;;;5075174;28;20083;-72
2022/09/29 08:35:04;;;;;;;27.42;11.15;;;9.50;99.90;;;;;;5075180;28;20041;-72
2022/09/29 08:37:30;;;;;;;30.23;11.30;;;9.70;99.90;;;;;;5075062;28;20070;-72
2022/09/29 08:39:55;;;;;;;30.73;11.00;;;9.60;99.90;;;;;;5076394;28;20024;-72
2022/09/29 08:42:37;;;;;;;22.08;10.23;;;9.40;99.90;;;;;;5074975;28;20024;-72
2022/09/29 08:45:07;;;;;;;24.83;11.40;;;9.40;99.90;;;;;;5076636;28;20074;-72
2022/09/29 08:47:46;;;;;;;26.85;11.70;;;9.40;99.90;;;;;;5074878;28;20392;-72
2022/09/29 08:50:23;;;;;;;24.60;11.00;;;9.40;99.90;;;;;;5075059;28;20024;-72
2022/09/29 08:52:54;;;;;;;26.05;11.45;;;9.40;99.90;;;;;;5075745;28;20033;-72
2022/09/29 08:55:41;;;;;;;25.13;10.88;;;9.40;99.90;;;;;;5074997;28;20027;-72
2022/09/29 08:58:12;;;;;;;21.42;10.75;;;9.30;99.90;;;;;;5075737;28;20078;-72
2022/09/29 09:01:00;;;;;;;22.25;10.48;;;9.30;99.90;;;;;;5076577;28;20052;-72
2022/09/29 09:03:41;;;;;;;22.50;10.32;;;9.40;99.90;;;;;;5075358;28;20035;-73
2022/09/29 09:06:11;;;;;;;17.27;9.50;;;9.40;99.90;;;;;;5083900;28;20035;-73
2022/09/29 09:09:02;;;;;;;20.80;9.75;;;9.60;99.90;;;;;;5075903;28;20051;-73
2022/09/29 09:11:44;;;;;;;22.90;10.65;;;9.60;99.90;;;;;;5074514;28;20080;-73
2022/09/29 09:14:09;;;;;;;;;;;9.60;99.90;;;;;;5076469;28;20464;-73
2022/09/29 09:16:47;;;;;;;19.42;9.63;;;9.70;99.90;;;;;;5075618;28;19908;-73
2022/09/29 09:19:48;;;;;;;19.00;9.60;;;9.50;99.90;;;;;;5074912;28;20111;-72
2022/09/29 09:22:23;;;;;;;18.08;9.07;;;9.50;99.90;;;;;;4994185;28;20122;-73
2022/09/29 09:25:27;;;;;;;21.77;10.02;;;9.70;99.90;;;;;;5060614;28;20115;-73
2022/09/29 09:28:02;;;;;;;21.20;10.30;;;10.00;99.90;;;;;;4994081;28;20045;-73
2022/09/29 09:30:36;;;;;;;24.58;10.32;;;10.10;99.90;;;;;;4994190;28;20083;-73
2022/09/29 09:33:07;;;;;;;19.55;9.73;;;10.00;99.90;;;;;;4977937;28;20037;-73
2022/09/29 09:35:42;;;;;;;20.83;9.73;;;10.00;99.90;;;;;;4977589;28;20038;-73
2022/09/29 09:38:17;;;;;;;23.58;10.27;;;10.20;99.90;;;;;;4977772;28;20033;-73
2022/09/29 09:40:47;;;;;;;19.45;10.57;;;10.40;99.90;;;;;;4978358;28;20113;-73
2022/09/29 09:43:25;;;;;;;19.60;9.60;;;10.60;99.90;;;;;;4977551;28;20027;-73
2022/09/29 09:46:01;;;;;;;17.55;9.52;;;10.80;99.90;;;;;;4977713;28;20049;-73
2022/09/29 09:48:35;;;;;;;18.88;8.90;;;10.80;99.90;;;;;;4994142;28;20030;-73
2022/09/29 09:51:28;;;;;;;20.23;9.05;;;10.80;99.90;;;;;;4978109;28;20133;-73
2022/09/29 09:53:55;;;;;;;23.40;10.32;;;10.90;99.90;;;;;;4977484;28;20030;-73
2022/09/29 09:56:26;;;;;;;19.25;9.75;;;11.00;99.90;;;;;;4993616;28;20109;-73
2022/09/29 09:59:38;;;;;;;20.75;9.10;;;10.90;99.90;;;;;;4977541;28;20031;-73
2022/09/29 10:02:04;;;;;;;18.63;8.73;;;10.80;99.90;;;;;;4916400;29;20035;-72
2022/09/29 10:04:32;;;;;;;15.70;8.90;;;10.70;99.90;;;;;;4966509;28;20265;-72
2022/09/29 10:06:57;;;;;;;20.55;9.63;;;10.70;99.90;;;;;;4996752;28;20034;-73
2022/09/29 10:09:23;;;;;;;18.25;8.77;;;10.70;99.90;;;;;;4996548;28;20033;-73
2022/09/29 10:11:49;;;;;;;17.90;8.85;;;10.80;99.90;;;;;;5023475;28;20082;-73
2022/09/29 10:14:26;;;;;;;17.02;8.80;;;10.90;99.90;;;;;;5013160;28;20230;-73
2022/09/29 10:17:01;;;;;;;20.77;8.25;;;11.00;99.90;;;;;;4995360;28;20564;-73
2022/09/29 10:19:52;;;;;;;14.50;7.63;;;11.10;99.90;;;;;;4997035;28;20038;-72
2022/09/29 10:22:19;;;;;;;17.02;8.88;;;11.20;99.90;;;;;;4996896;28;20026;-73
2022/09/29 10:24:44;;;;;;;14.85;7.45;;;11.30;99.90;;;;;;5012718;28;20057;-73
2022/09/29 10:27:16;;;;;;;16.50;8.27;;;11.20;99.90;;;;;;4996426;28;20072;-73
2022/09/29 10:29:48;;;;;;;16.05;7.65;;;11.10;99.90;;;;;;4996304;28;20057;-73
2022/09/29 10:32:19;;;;;;;14.57;7.80;;;11.10;99.90;;;;;;5029076;28;20119;-73
2022/09/29 10:34:50;;;;;;;17.20;9.23;;;11.20;99.90;;;;;;5072797;28;20028;-73
2022/09/29 10:37:34;;;;;;;17.77;8.23;;;11.30;99.90;;;;;;5073156;28;20035;-72
2022/09/29 10:40:13;;;;;;;14.60;7.72;;;11.40;99.90;;;;;;5073177;28;20024;-75
2022/09/29 10:42:45;;;;;;;17.27;8.25;;;11.50;99.90;;;;;;5074196;28;20021;-75
2022/09/29 10:45:10;;;;;;;16.13;7.88;;;11.70;99.90;;;;;;5073721;28;20016;-75
2022/09/29 10:47:37;;;;;;;14.05;6.88;;;11.80;99.90;;;;;;5073126;28;20059;-75
2022/09/29 10:50:33;;;;;;;20.25;7.38;;;11.80;99.90;;;;;;5072843;28;20047;-75
2022/09/29 10:53:03;;;;;;;17.58;7.97;;;11.90;99.90;;;;;;5073936;28;20031;-75
2022/09/29 10:55:34;;;;;;;15.00;7.25;;;12.10;99.90;;;;;;5073905;28;20024;-75
2022/09/29 10:58:18;;;;;;;12.73;6.72;;;12.20;99.90;;;;;;5072631;28;20484;-75
2022/09/29 11:00:46;;;;;;;14.90;8.07;;;12.40;99.90;;;;;;5073124;28;20025;-75
2022/09/29 11:03:28;;;;;;;16.77;6.90;;;12.70;99.90;;;;;;5072352;28;20074;-75
2022/09/29 11:06:00;;;;;;;12.40;7.13;;;13.00;99.90;;;;;;5073330;28;20042;-75
2022/09/29 11:08:26;;;;;;;14.73;7.28;;;13.10;99.90;;;;;;5073319;28;20036;-75
2022/09/29 11:11:20;;;;;;;17.20;7.45;;;13.30;99.90;;;;;;5073682;28;20108;-75
2022/09/29 11:13:46;;;;;;;15.85;6.97;;;13.40;99.90;;;;;;5060730;28;20096;-75
2022/09/29 11:16:16;;;;;;;20.13;7.80;;;13.70;99.90;;;;;;5080827;28;20067;-75
2022/09/29 11:18:46;;;;;;;10.85;6.18;;;14.00;99.90;;;;;;5074557;28;20017;-75
2022/09/29 11:21:20;;;;;;;12.40;7.10;;;14.10;99.90;;;;;;5074301;28;20017;-75
2022/09/29 11:24:22;;;;;;;13.40;7.75;;;13.80;99.90;;;;;;5074233;28;20024;-75
2022/09/29 11:27:09;;;;;;;10.65;5.43;;;14.00;99.90;;;;;;5072493;28;20111;-74
2022/09/29 11:29:53;;;;;;;13.55;6.78;;;14.60;99.90;;;;;;5073064;28;20032;-73
2022/09/29 11:32:40;;;;;;;14.02;6.28;;;14.50;99.90;;;;;;5073354;28;20510;-75
2022/09/29 11:35:37;;;;;;;9.13;6.07;;;14.00;99.90;;;;;;5071862;28;20033;-75
2022/09/29 11:38:20;;;;;;;9.25;5.55;;;14.00;99.90;;;;;;5072433;28;20040;-73
2022/09/29 11:41:01;;;;;;;;;;;14.10;99.90;;;;;;5073779;28;20021;-72
2022/09/29 11:43:48;;;;;;;9.63;4.90;;;14.30;99.90;;;;;;5072163;28;19904;-72
2022/09/29 11:46:39;;;;;;;11.05;5.47;;;14.30;99.90;;;;;;5072865;28;20059;-72
2022/09/29 11:49:41;;;;;;;7.82;4.28;;;14.30;99.90;;;;;;5072816;28;20028;-72
2022/09/29 11:52:18;;;;;;;13.07;4.67;;;14.40;99.90;;;;;;5073094;28;20028;-70
2022/09/29 11:54:50;;;;;;;12.88;5.70;;;15.10;99.90;;;;;;5073129;28;20029;-71
2022/09/29 11:57:22;;;;;;;9.23;4.65;;;15.00;99.90;;;;;;5073352;28;20028;-71
2022/09/29 12:00:11;;;;;;;12.95;4.13;;;15.70;99.90;;;;;;5073152;28;20051;-72
2022/09/29 12:02:40;;;;;;;8.25;3.88;;;15.80;99.90;;;;;;5071792;28;20052;-72
2022/09/29 12:05:16;;;;;;;9.60;4.00;;;15.30;99.90;;;;;;5072936;28;20059;-73
2022/09/29 12:08:01;;;;;;;7.25;3.50;;;15.50;99.90;;;;;;5073207;28;20073;-73
2022/09/29 12:10:43;;;;;;;7.25;4.03;;;15.50;99.90;;;;;;5071895;28;20120;-73
2022/09/29 12:13:24;;;;;;;10.88;3.70;;;15.30;99.90;;;;;;5073562;28;20365;-73
2022/09/29 12:16:24;;;;;;;8.32;3.72;;;15.10;99.90;;;;;;5073002;28;20063;-73
2022/09/29 12:19:05;;;;;;;3.85;2.83;;;15.50;99.90;;;;;;5073259;28;20035;-73
2022/09/29 12:21:36;;;;;;;6.97;3.28;;;15.60;99.90;;;;;;5074523;28;20027;-73
2022/09/29 12:24:04;;;;;;;6.05;3.00;;;15.90;99.90;;;;;;5079803;28;20086;-73
2022/09/29 12:26:32;;;;;;;5.05;3.03;;;16.00;99.90;;;;;;5071552;28;20054;-73
2022/09/29 12:29:01;;;;;;;4.72;2.90;;;16.50;99.90;;;;;;5071515;28;20036;-73
2022/09/29 12:31:33;;;;;;;4.90;3.25;;;16.80;99.90;;;;;;5072881;28;20021;-73
2022/09/29 12:34:21;;;;;;;6.78;4.25;;;17.00;99.90;;;;;;5072796;28;20035;-73
2022/09/29 12:37:04;;;;;;;4.00;3.58;;;17.10;99.90;;;;;;5071487;28;20062;-73
2022/09/29 12:39:36;;;;;;;8.07;4.07;;;16.70;99.90;;;;;;5074283;28;20384;-71
2022/09/29 12:42:19;;;;;;;6.28;4.05;;;16.20;99.90;;;;;;5075826;28;20078;-70
2022/09/29 12:45:01;;;;;;;6.80;3.55;;;15.90;99.90;;;;;;5077222;28;20074;-70
2022/09/29 12:47:33;;;;;;;5.88;4.15;;;16.00;99.90;;;;;;5076626;28;20028;-72
2022/09/29 12:49:58;;;;;;;;;;;16.10;99.90;;;;;;5077389;28;20033;-71
2022/09/29 12:52:32;;;;;;;5.78;3.85;;;16.40;99.90;;;;;;5077609;28;20011;-71
2022/09/29 12:55:03;;;;;;;6.53;4.25;;;16.70;99.90;;;;;;5093863;22;20037;-71
2022/09/29 12:57:39;;;;;;;5.28;3.88;;;16.20;99.90;;;;;;5056370;28;20021;-71
2022/09/29 13:00:08;;;;;;;5.72;3.53;;;16.10;99.90;;;;;;5056379;28;20534;-71
2022/09/29 13:02:52;;;;;;;4.13;3.33;;;15.80;99.90;;;;;;5055997;28;20108;-71
2022/09/29 13:05:24;;;;;;;6.07;2.83;;;16.50;99.90;;;;;;5067152;28;20016;-71
2022/09/29 13:08:27;;;;;;;5.03;2.47;;;16.60;99.90;;;;;;5076172;28;20028;-71
2022/09/29 13:11:01;;;;;;;5.90;2.90;;;17.40;99.90;;;;;;5057835;28;20054;-71
2022/09/29 13:13:57;;;;;;;2.90;2.63;;;17.20;99.90;;;;;;5075738;28;20021;-71
2022/09/29 13:16:58;;;;;;;5.28;2.78;;;16.70;99.90;;;;;;5058634;28;20028;-71